Time;durP1;ratioP1;P1;durP2;ratioP2;P2;SDS_P1;SDS_P2;PMS_P1;PMS_P2;Temp;Humidity;BMP_temperature;BMP_pressure;BME280_temperature;BME280_humidity;BME280_pressure;Samples;Min_cycle;Max_cycle;Signal;HPM_P1;HPM_P2
2023/04/04 00:01:24;;;;;;;6.70;3.45;;;2.10;99.90;;;;;;5071936;28;20053;-63
2023/04/04 00:03:51;;;;;;;5.75;2.97;;;2.00;99.90;;;;;;5073020;28;20060;-62
2023/04/04 00:06:19;;;;;;;8.30;3.92;;;2.10;99.90;;;;;;5072073;28;20489;-63
2023/04/04 00:08:47;;;;;;;6.90;3.10;;;2.00;99.90;;;;;;5072005;28;20087;-63
2023/04/04 00:11:14;;;;;;;7.43;3.20;;;2.00;99.90;;;;;;5072616;28;20131;-63
2023/04/04 00:13:41;;;;;;;6.72;2.97;;;2.00;99.90;;;;;;5072197;28;20048;-62
2023/04/04 00:16:08;;;;;;;6.15;3.28;;;2.00;99.90;;;;;;5071607;28;20053;-62
2023/04/04 00:18:36;;;;;;;4.70;2.90;;;1.90;99.90;;;;;;5071360;28;20408;-63
2023/04/04 00:21:03;;;;;;;5.80;2.58;;;1.90;99.90;;;;;;5070800;28;20499;-62
2023/04/04 00:23:29;;;;;;;7.03;3.58;;;1.80;99.90;;;;;;5072591;28;20056;-63
2023/04/04 00:25:58;;;;;;;6.38;3.10;;;1.80;99.90;;;;;;5071637;28;20045;-63
2023/04/04 00:28:25;;;;;;;8.32;3.33;;;1.80;99.90;;;;;;5072808;28;20048;-63
2023/04/04 00:30:52;;;;;;;6.40;3.15;;;1.90;99.90;;;;;;5071374;28;20056;-62
2023/04/04 00:33:19;;;;;;;6.10;3.38;;;1.80;99.90;;;;;;5069937;28;20048;-63
2023/04/04 00:35:47;;;;;;;10.80;3.90;;;1.80;99.90;;;;;;5070875;28;20090;-62
2023/04/04 00:38:14;;;;;;;5.95;3.30;;;1.80;99.90;;;;;;5072364;28;20045;-63
2023/04/04 00:40:43;;;;;;;6.20;3.78;;;1.90;99.90;;;;;;5071631;28;20420;-62
2023/04/04 00:43:11;;;;;;;8.88;4.05;;;1.90;99.90;;;;;;5072648;28;20158;-63
2023/04/04 00:45:38;;;;;;;7.20;3.72;;;2.00;99.90;;;;;;5072246;28;20044;-63
2023/04/04 00:48:06;;;;;;;8.57;3.72;;;2.00;99.90;;;;;;5071529;28;20492;-63
2023/04/04 00:50:33;;;;;;;6.43;3.85;;;1.90;99.90;;;;;;5071286;28;20052;-63
2023/04/04 00:53:00;;;;;;;9.38;3.80;;;1.90;99.90;;;;;;5071186;28;20442;-62
2023/04/04 00:55:27;;;;;;;9.77;4.25;;;1.90;99.90;;;;;;5071375;28;20448;-63
2023/04/04 00:57:54;;;;;;;6.85;3.47;;;2.00;99.90;;;;;;5070904;28;20480;-62
2023/04/04 01:00:23;;;;;;;6.30;3.50;;;1.90;99.90;;;;;;5072017;28;20052;-63
2023/04/04 01:02:50;;;;;;;9.80;3.60;;;1.90;99.90;;;;;;5069732;28;20048;-62
2023/04/04 01:05:17;;;;;;;5.78;3.65;;;1.80;99.90;;;;;;5070548;28;20114;-63
2023/04/04 01:07:44;;;;;;;6.35;3.60;;;1.80;99.90;;;;;;5068812;28;20048;-63
2023/04/04 01:10:12;;;;;;;6.72;4.05;;;1.80;99.90;;;;;;5070290;28;20492;-62
2023/04/04 01:12:40;;;;;;;9.10;3.83;;;1.80;99.90;;;;;;5071042;28;20044;-63
2023/04/04 01:15:08;;;;;;;5.25;3.10;;;1.80;99.90;;;;;;5070122;28;20096;-62
2023/04/04 01:17:36;;;;;;;8.00;3.50;;;1.70;99.90;;;;;;5072013;28;20043;-63
2023/04/04 01:20:06;;;;;;;7.05;3.47;;;1.70;99.90;;;;;;5070650;28;20097;-63
2023/04/04 01:22:34;;;;;;;8.07;3.67;;;1.70;99.90;;;;;;5071687;28;20052;-62
2023/04/04 01:25:04;;;;;;;6.20;3.15;;;1.60;99.90;;;;;;5068751;28;20445;-63
2023/04/04 01:27:32;;;;;;;5.65;3.35;;;1.80;99.90;;;;;;5072048;28;20048;-62
2023/04/04 01:29:59;;;;;;;6.72;3.63;;;1.60;99.90;;;;;;5071316;28;20434;-62
2023/04/04 01:32:32;;;;;;;6.10;3.60;;;1.60;99.90;;;;;;5068337;28;20049;-63
2023/04/04 01:35:09;;;;;;;6.75;3.17;;;1.60;99.90;;;;;;5070674;28;20098;-64
2023/04/04 01:37:41;;;;;;;7.95;3.42;;;1.60;99.90;;;;;;5071356;28;20063;-63
2023/04/04 01:40:13;;;;;;;7.55;3.40;;;1.50;99.90;;;;;;5071689;28;20127;-62
2023/04/04 01:42:44;;;;;;;6.45;3.70;;;1.50;99.90;;;;;;5071914;28;20048;-63
2023/04/04 01:45:11;;;;;;;6.30;3.45;;;1.40;99.90;;;;;;5070893;28;20458;-62
2023/04/04 01:47:39;;;;;;;6.18;3.47;;;1.40;99.90;;;;;;5071993;28;20087;-62
2023/04/04 01:50:07;;;;;;;6.97;3.92;;;1.40;99.90;;;;;;5071834;28;20135;-63
2023/04/04 01:52:35;;;;;;;8.50;4.15;;;1.30;99.90;;;;;;5069071;28;20140;-62
2023/04/04 01:55:02;;;;;;;10.48;3.70;;;1.30;99.90;;;;;;5071444;28;20076;-62
2023/04/04 01:57:29;;;;;;;5.38;3.35;;;1.30;99.90;;;;;;5070919;28;20087;-63
2023/04/04 01:59:57;;;;;;;6.55;3.72;;;1.30;99.90;;;;;;5070513;28;20098;-62
2023/04/04 02:02:24;;;;;;;7.32;3.92;;;1.20;99.90;;;;;;5071425;28;20094;-63
2023/04/04 02:04:51;;;;;;;6.82;3.40;;;1.20;99.90;;;;;;5069476;28;20071;-63
2023/04/04 02:07:18;;;;;;;7.15;3.92;;;1.10;99.90;;;;;;5071724;28;20049;-62
2023/04/04 02:09:45;;;;;;;9.32;3.97;;;1.10;99.90;;;;;;5069388;28;20045;-63
2023/04/04 02:12:12;;;;;;;6.30;3.10;;;1.10;99.90;;;;;;5071772;28;20048;-63
2023/04/04 02:14:39;;;;;;;6.35;3.80;;;1.10;99.90;;;;;;5074175;28;20051;-63
2023/04/04 02:17:07;;;;;;;14.57;3.53;;;1.00;99.90;;;;;;5074693;28;20072;-63
2023/04/04 02:19:34;;;;;;;10.02;3.95;;;1.00;99.90;;;;;;5073102;28;20090;-62
2023/04/04 02:22:01;;;;;;;8.57;3.47;;;1.00;99.90;;;;;;5074808;28;20488;-62
2023/04/04 02:24:28;;;;;;;5.53;3.15;;;1.00;99.90;;;;;;5075313;28;20051;-62
2023/04/04 02:26:55;;;;;;;6.57;3.35;;;0.90;99.90;;;;;;5073026;28;20056;-63
2023/04/04 02:29:22;;;;;;;5.22;3.08;;;0.90;99.90;;;;;;5073794;28;20098;-63
2023/04/04 02:31:49;;;;;;;4.82;3.13;;;1.00;99.90;;;;;;5073711;28;20083;-62
2023/04/04 02:34:17;;;;;;;5.45;3.72;;;0.80;99.90;;;;;;5073986;28;20052;-63
2023/04/04 02:36:44;;;;;;;5.32;3.15;;;0.80;99.90;;;;;;5074729;28;20045;-63
2023/04/04 02:39:11;;;;;;;8.50;3.53;;;0.80;99.90;;;;;;5073308;28;20045;-63
2023/04/04 02:41:38;;;;;;;5.80;3.10;;;0.80;99.90;;;;;;5074129;28;20044;-64
2023/04/04 02:44:07;;;;;;;5.97;3.85;;;0.80;99.90;;;;;;5074644;28;20079;-63
2023/04/04 02:46:34;;;;;;;4.93;2.83;;;0.80;99.90;;;;;;5073914;28;20055;-63
2023/04/04 02:49:02;;;;;;;5.97;3.00;;;0.80;99.90;;;;;;5071315;28;20404;-63
2023/04/04 02:51:32;;;;;;;5.55;3.15;;;0.90;99.90;;;;;;5074206;28;20044;-63
2023/04/04 02:53:59;;;;;;;4.40;3.07;;;0.80;99.90;;;;;;5072559;28;20048;-63
2023/04/04 02:56:26;;;;;;;5.25;3.25;;;0.80;99.90;;;;;;5072758;28;20059;-63
2023/04/04 02:58:53;;;;;;;5.38;3.13;;;0.80;99.90;;;;;;5074409;28;20049;-63
2023/04/04 03:01:20;;;;;;;7.10;3.80;;;0.90;99.90;;;;;;5072441;28;20135;-63
2023/04/04 03:03:47;;;;;;;4.88;3.10;;;0.70;99.90;;;;;;5072893;28;20052;-63
2023/04/04 03:06:14;;;;;;;5.65;3.30;;;0.80;99.90;;;;;;5072690;28;20060;-62
2023/04/04 03:08:42;;;;;;;6.63;2.97;;;0.70;99.90;;;;;;5073351;28;20044;-62
2023/04/04 03:11:09;;;;;;;6.35;3.17;;;0.70;99.90;;;;;;5072945;28;20118;-62
2023/04/04 03:13:36;;;;;;;8.15;3.20;;;0.70;99.90;;;;;;5073058;28;20056;-61
2023/04/04 03:16:05;;;;;;;9.10;3.72;;;0.60;99.90;;;;;;5072034;28;20087;-62
2023/04/04 03:18:33;;;;;;;4.93;2.83;;;0.60;99.90;;;;;;5070473;28;20548;-62
2023/04/04 03:21:00;;;;;;;5.63;2.97;;;0.60;99.90;;;;;;5072728;28;20052;-63
2023/04/04 03:23:27;;;;;;;5.82;3.15;;;0.60;99.90;;;;;;5073450;28;20048;-62
2023/04/04 03:25:55;;;;;;;7.22;3.33;;;0.60;99.90;;;;;;5072133;28;21387;-62
2023/04/04 03:28:22;;;;;;;6.13;3.33;;;0.80;99.90;;;;;;5072644;28;20040;-63
2023/04/04 03:30:49;;;;;;;8.48;3.33;;;0.60;99.90;;;;;;5073052;28;20502;-62
2023/04/04 03:33:17;;;;;;;6.32;3.35;;;0.60;99.90;;;;;;5073411;28;20092;-62
2023/04/04 03:35:44;;;;;;;6.93;2.63;;;0.50;99.90;;;;;;5073269;28;20052;-62
2023/04/04 03:38:11;;;;;;;8.15;3.25;;;0.40;99.90;;;;;;5072231;28;20052;-63
2023/04/04 03:40:40;;;;;;;5.25;3.35;;;0.40;99.90;;;;;;5072498;28;20056;-62
2023/04/04 03:43:09;;;;;;;9.43;3.53;;;0.40;99.90;;;;;;5072743;28;20071;-62
2023/04/04 03:45:35;;;;;;;6.72;3.00;;;0.30;99.90;;;;;;5071921;28;20045;-62
2023/04/04 03:48:03;;;;;;;6.45;3.17;;;0.30;99.90;;;;;;5062220;28;20127;-61
2023/04/04 03:50:30;;;;;;;5.78;3.45;;;0.50;99.90;;;;;;5069694;28;20044;-62
2023/04/04 03:52:58;;;;;;;8.70;3.67;;;0.40;99.90;;;;;;5069197;28;20052;-62
2023/04/04 03:55:25;;;;;;;6.97;3.22;;;0.40;99.90;;;;;;5072444;28;20135;-62
2023/04/04 03:57:52;;;;;;;6.25;3.13;;;0.30;99.90;;;;;;5068646;28;20048;-65
2023/04/04 04:00:20;;;;;;;10.00;3.55;;;0.30;99.90;;;;;;5069999;28;20493;-63
2023/04/04 04:02:47;;;;;;;6.10;4.00;;;0.50;99.90;;;;;;5071379;28;20132;-62
2023/04/04 04:05:14;;;;;;;6.80;3.60;;;0.30;99.90;;;;;;5068755;28;20777;-62
2023/04/04 04:07:44;;;;;;;4.95;3.08;;;0.30;99.90;;;;;;5070512;28;20055;-62
2023/04/04 04:10:12;;;;;;;10.38;3.60;;;0.30;99.90;;;;;;5068545;28;20136;-63
2023/04/04 04:12:40;;;;;;;8.73;3.30;;;0.30;99.90;;;;;;5069963;28;20153;-63
2023/04/04 04:15:08;;;;;;;9.68;3.33;;;0.30;99.90;;;;;;5070370;28;20049;-62
2023/04/04 04:17:39;;;;;;;6.20;3.45;;;0.30;99.90;;;;;;5070436;28;20048;-63
2023/04/04 04:20:08;;;;;;;5.55;3.40;;;0.30;99.90;;;;;;5067891;28;20407;-63
2023/04/04 04:22:35;;;;;;;6.53;3.10;;;0.30;99.90;;;;;;5070454;28;20500;-63
2023/04/04 04:25:02;;;;;;;6.40;3.47;;;0.20;99.90;;;;;;5067978;28;20040;-62
2023/04/04 04:27:29;;;;;;;7.22;3.75;;;0.20;99.90;;;;;;5070172;28;20064;-63
2023/04/04 04:29:59;;;;;;;5.28;3.55;;;0.20;99.90;;;;;;5066758;28;20032;-63
2023/04/04 04:32:26;;;;;;;6.63;3.22;;;0.20;99.90;;;;;;5069184;28;20476;-63
2023/04/04 04:34:54;;;;;;;12.93;3.65;;;0.20;99.90;;;;;;5069555;28;20135;-62
2023/04/04 04:37:22;;;;;;;5.57;2.88;;;0.20;99.90;;;;;;5066574;28;20071;-62
2023/04/04 04:39:49;;;;;;;7.50;2.92;;;0.20;99.90;;;;;;5097461;28;20055;-64
2023/04/04 04:42:16;;;;;;;4.90;2.88;;;0.30;99.90;;;;;;5068978;28;20052;-63
2023/04/04 04:44:43;;;;;;;7.85;3.35;;;0.20;99.90;;;;;;5067604;28;20504;-64
2023/04/04 04:47:10;;;;;;;5.05;2.90;;;0.20;99.90;;;;;;5068295;28;20052;-64
2023/04/04 04:49:37;;;;;;;4.88;3.08;;;0.30;99.90;;;;;;5101735;28;20049;-63
2023/04/04 04:52:05;;;;;;;7.25;3.22;;;0.30;99.90;;;;;;5068944;28;20053;-63
2023/04/04 04:54:32;;;;;;;6.65;3.58;;;0.30;99.90;;;;;;5098808;28;20052;-63
2023/04/04 04:57:00;;;;;;;7.78;2.90;;;0.30;99.90;;;;;;5066470;28;20045;-61
2023/04/04 04:59:27;;;;;;;4.97;2.80;;;0.30;99.90;;;;;;5068289;28;20044;-62
2023/04/04 05:01:54;;;;;;;7.10;2.90;;;0.30;99.90;;;;;;5068376;28;20057;-60
2023/04/04 05:04:21;;;;;;;9.68;3.55;;;0.30;99.90;;;;;;5069376;28;20550;-62
2023/04/04 05:06:48;;;;;;;7.22;3.45;;;0.30;99.90;;;;;;5066179;28;20450;-61
2023/04/04 05:09:16;;;;;;;5.47;3.42;;;0.40;99.90;;;;;;5099625;28;20052;-61
2023/04/04 05:11:43;;;;;;;7.97;3.95;;;0.40;99.90;;;;;;5067588;28;20074;-60
2023/04/04 05:14:10;;;;;;;6.85;3.40;;;0.40;99.90;;;;;;5070762;28;20514;-61
2023/04/04 05:16:37;;;;;;;9.43;3.45;;;0.40;99.90;;;;;;5068696;28;20412;-61
2023/04/04 05:19:04;;;;;;;7.20;3.72;;;0.50;99.90;;;;;;5071267;28;20071;-62
2023/04/04 05:21:30;;;;;;;10.10;3.22;;;0.50;99.90;;;;;;5066866;28;20044;-63
2023/04/04 05:23:58;;;;;;;7.53;3.63;;;0.60;99.90;;;;;;5098530;28;20045;-63
2023/04/04 05:26:28;;;;;;;6.53;4.28;;;0.60;99.90;;;;;;5068709;28;20159;-64
2023/04/04 05:28:55;;;;;;;6.93;3.90;;;0.70;99.90;;;;;;5068821;28;20070;-62
2023/04/04 05:31:22;;;;;;;6.47;3.78;;;0.80;99.90;;;;;;5068899;28;20045;-63
2023/04/04 05:33:49;;;;;;;9.48;5.00;;;0.80;99.90;;;;;;5071794;28;20056;-62
2023/04/04 05:36:16;;;;;;;10.43;3.47;;;0.90;99.90;;;;;;5069928;28;20483;-62
2023/04/04 05:38:42;;;;;;;7.47;3.55;;;1.00;99.90;;;;;;5071613;28;20492;-62
2023/04/04 05:41:09;;;;;;;6.88;3.25;;;1.10;99.90;;;;;;5071942;28;20420;-62
2023/04/04 05:43:37;;;;;;;6.00;3.78;;;1.20;99.90;;;;;;5071000;28;20488;-62
2023/04/04 05:46:05;;;;;;;10.38;3.78;;;1.30;99.90;;;;;;5072034;28;20048;-62
2023/04/04 05:48:31;;;;;;;9.60;3.95;;;1.40;99.90;;;;;;5075427;28;20411;-63
2023/04/04 05:50:58;;;;;;;9.68;3.67;;;1.40;99.90;;;;;;5074920;28;20457;-63
2023/04/04 05:53:25;;;;;;;7.05;3.28;;;1.40;99.90;;;;;;5074456;28;20454;-62
2023/04/04 05:55:53;;;;;;;7.07;3.53;;;1.40;99.90;;;;;;5075275;28;20453;-62
2023/04/04 05:58:19;;;;;;;8.77;3.63;;;1.50;99.90;;;;;;5073740;28;20531;-61
2023/04/04 06:00:48;;;;;;;6.68;3.95;;;1.50;99.90;;;;;;5075497;28;20048;-62
2023/04/04 06:03:15;;;;;;;6.72;4.35;;;1.50;99.90;;;;;;5075090;28;20055;-62
2023/04/04 06:05:43;;;;;;;8.25;3.40;;;1.60;99.90;;;;;;5073249;28;20070;-62
2023/04/04 06:08:10;;;;;;;8.68;3.55;;;1.60;99.90;;;;;;5074306;28;20540;-62
2023/04/04 06:10:37;;;;;;;9.68;4.07;;;1.60;99.90;;;;;;5071387;28;20102;-62
2023/04/04 06:13:03;;;;;;;5.10;3.75;;;1.60;99.90;;;;;;5075247;28;20076;-62
2023/04/04 06:15:30;;;;;;;8.05;3.88;;;1.70;99.90;;;;;;5074923;28;20446;-62
2023/04/04 06:17:59;;;;;;;7.85;3.38;;;1.80;99.90;;;;;;5074414;28;20474;-63
2023/04/04 06:20:26;;;;;;;8.57;3.40;;;2.10;99.90;;;;;;5073661;28;20048;-62
2023/04/04 06:22:53;;;;;;;7.35;3.58;;;2.70;99.90;;;;;;5073909;28;20105;-62
2023/04/04 06:25:20;;;;;;;7.68;3.47;;;3.60;99.90;;;;;;5074311;28;20127;-62
2023/04/04 06:27:47;;;;;;;10.93;3.38;;;4.50;99.90;;;;;;5075042;28;20047;-63
2023/04/04 06:30:16;;;;;;;4.85;3.28;;;5.40;99.90;;;;;;5074738;28;20094;-63
2023/04/04 06:32:43;;;;;;;6.70;3.30;;;6.10;99.90;;;;;;5074198;28;20102;-62
2023/04/04 06:35:12;;;;;;;6.82;2.88;;;6.70;99.90;;;;;;5072846;28;20056;-62
2023/04/04 06:37:38;;;;;;;9.07;2.90;;;7.30;99.90;;;;;;5073454;28;20067;-62
2023/04/04 06:40:07;;;;;;;8.32;3.60;;;7.70;99.90;;;;;;5070540;28;20041;-63
2023/04/04 06:42:34;;;;;;;10.07;3.30;;;8.00;99.90;;;;;;5074550;28;20040;-62
2023/04/04 06:45:00;;;;;;;15.27;2.88;;;8.40;99.90;;;;;;5074461;28;20041;-63
2023/04/04 06:47:27;;;;;;;7.40;3.00;;;8.30;99.60;;;;;;5073883;28;20048;-63
2023/04/04 06:49:54;;;;;;;7.75;3.35;;;8.70;99.10;;;;;;5073116;28;20048;-63
2023/04/04 06:52:23;;;;;;;8.95;3.33;;;9.30;97.90;;;;;;5072319;28;20056;-62
2023/04/04 06:54:50;;;;;;;6.53;2.63;;;9.70;96.80;;;;;;5073735;28;20120;-63
2023/04/04 06:57:18;;;;;;;6.97;2.38;;;10.10;95.50;;;;;;5072605;28;20059;-62
2023/04/04 06:59:44;;;;;;;6.70;2.47;;;10.60;96.80;;;;;;5073624;28;20101;-63
2023/04/04 07:02:11;;;;;;;6.95;2.70;;;10.30;92.50;;;;;;5073320;28;20061;-63
2023/04/04 07:04:38;;;;;;;10.40;2.65;;;10.90;93.20;;;;;;5071788;28;20052;-62
2023/04/04 07:07:06;;;;;;;5.97;2.20;;;11.20;91.40;;;;;;5072305;28;20125;-63
2023/04/04 07:09:34;;;;;;;5.90;2.25;;;12.20;92.10;;;;;;5073037;28;20071;-63
2023/04/04 07:12:01;;;;;;;5.10;2.63;;;11.80;86.70;;;;;;5072979;28;20090;-63
2023/04/04 07:14:28;;;;;;;4.68;1.90;;;11.90;88.00;;;;;;5073190;28;20040;-62
2023/04/04 07:16:55;;;;;;;6.82;2.38;;;11.80;85.00;;;;;;5071551;28;20048;-63
2023/04/04 07:19:23;;;;;;;3.85;2.20;;;12.00;87.10;;;;;;5073458;28;20514;-63
2023/04/04 07:21:50;;;;;;;4.10;1.98;;;12.30;84.60;;;;;;5072431;28;20044;-62
2023/04/04 07:24:17;;;;;;;14.13;3.58;;;12.70;85.60;;;;;;5072371;28;20102;-64
2023/04/04 07:26:45;;;;;;;5.20;2.05;;;12.70;85.90;;;;;;5072521;28;20045;-63
2023/04/04 07:29:12;;;;;;;8.93;2.33;;;13.10;85.20;;;;;;5071129;28;20052;-63
2023/04/04 07:31:39;;;;;;;6.65;2.30;;;13.30;85.00;;;;;;5073798;28;20040;-63
2023/04/04 07:34:06;;;;;;;5.35;2.20;;;13.80;85.40;;;;;;5072572;28;20056;-62
2023/04/04 07:36:33;;;;;;;5.05;2.03;;;13.70;77.70;;;;;;5071779;28;20053;-63
2023/04/04 07:39:00;;;;;;;4.53;2.13;;;13.60;77.00;;;;;;5072459;28;20048;-63
2023/04/04 07:41:27;;;;;;;6.22;1.85;;;13.60;76.30;;;;;;5073340;28;20094;-63
2023/04/04 07:43:55;;;;;;;6.75;2.40;;;13.40;77.10;;;;;;5071542;28;20055;-63
2023/04/04 07:46:22;;;;;;;4.75;2.05;;;13.80;77.10;;;;;;5071219;28;20048;-63
2023/04/04 07:48:49;;;;;;;6.13;1.98;;;14.00;75.50;;;;;;5073402;28;20123;-63
2023/04/04 07:51:16;;;;;;;3.97;1.95;;;13.90;76.30;;;;;;5071579;28;20055;-63
2023/04/04 07:53:43;;;;;;;7.28;2.30;;;14.70;76.80;;;;;;5073055;28;20565;-63
2023/04/04 07:56:10;;;;;;;5.75;1.70;;;14.70;74.20;;;;;;5072177;28;20503;-63
2023/04/04 07:58:36;;;;;;;4.13;1.83;;;14.80;74.10;;;;;;5069845;28;20407;-63
2023/04/04 08:01:05;;;;;;;5.03;2.10;;;14.50;72.50;;;;;;5071802;28;20056;-63
2023/04/04 08:03:32;;;;;;;4.75;1.90;;;14.90;71.70;;;;;;5071334;28;20053;-63
2023/04/04 08:05:59;;;;;;;4.68;2.05;;;14.70;70.80;;;;;;5072666;28;20055;-63
2023/04/04 08:08:26;;;;;;;5.47;2.22;;;14.80;69.20;;;;;;5071645;28;20461;-63
2023/04/04 08:10:52;;;;;;;6.47;2.15;;;14.90;71.00;;;;;;5071814;28;20123;-62
2023/04/04 08:13:19;;;;;;;5.32;2.17;;;15.50;72.50;;;;;;5071471;28;20534;-64
2023/04/04 08:15:46;;;;;;;3.42;1.70;;;16.30;71.60;;;;;;5071635;28;20565;-64
2023/04/04 08:18:14;;;;;;;3.55;1.63;;;15.80;69.50;;;;;;5072084;28;20048;-62
2023/04/04 08:20:41;;;;;;;13.13;2.28;;;15.60;68.60;;;;;;5072653;28;20098;-63
2023/04/04 08:23:08;;;;;;;8.52;1.90;;;15.70;69.20;;;;;;5071878;28;20404;-63
2023/04/04 08:25:35;;;;;;;3.92;1.85;;;15.90;68.90;;;;;;5071989;28;20522;-63
2023/04/04 08:28:03;;;;;;;4.90;1.60;;;17.20;68.00;;;;;;5070620;28;20106;-63
2023/04/04 08:30:30;;;;;;;5.60;1.90;;;18.10;64.10;;;;;;5071492;28;20055;-63
2023/04/04 08:32:57;;;;;;;9.05;1.75;;;18.30;61.90;;;;;;5072095;28;20046;-63
2023/04/04 08:35:25;;;;;;;4.32;1.80;;;18.20;63.50;;;;;;5072178;28;20060;-63
2023/04/04 08:37:52;;;;;;;5.72;2.00;;;18.50;61.30;;;;;;5071244;28;20048;-62
2023/04/04 08:40:19;;;;;;;4.88;1.88;;;17.50;62.00;;;;;;5071993;28;20040;-64
2023/04/04 08:42:48;;;;;;;6.50;1.70;;;16.90;62.10;;;;;;5072583;28;20491;-63
2023/04/04 08:45:17;;;;;;;7.50;1.58;;;16.50;62.10;;;;;;5069052;28;20098;-63
2023/04/04 08:47:47;;;;;;;3.58;1.77;;;17.60;61.70;;;;;;5071311;28;20127;-63
2023/04/04 08:50:14;;;;;;;3.33;1.63;;;17.70;62.30;;;;;;5072218;28;20044;-64
2023/04/04 08:52:43;;;;;;;6.53;1.77;;;18.20;61.00;;;;;;5071919;28;20045;-64
2023/04/04 08:55:11;;;;;;;5.10;1.75;;;18.20;58.20;;;;;;5070809;28;20139;-64
2023/04/04 08:57:38;;;;;;;3.58;1.73;;;17.30;59.60;;;;;;5071078;28;20721;-64
2023/04/04 09:00:06;;;;;;;4.47;1.80;;;17.50;61.40;;;;;;5070506;28;20044;-64
2023/04/04 09:02:37;;;;;;;4.78;1.90;;;18.20;60.30;;;;;;5072117;28;20451;-64
2023/04/04 09:05:07;;;;;;;6.68;2.20;;;17.70;61.00;;;;;;5070609;28;20393;-64
2023/04/04 09:07:35;;;;;;;5.57;1.85;;;17.90;59.90;;;;;;5070600;28;20059;-64
2023/04/04 09:10:03;;;;;;;5.15;1.70;;;19.00;59.90;;;;;;5072128;28;20408;-63
2023/04/04 09:12:32;;;;;;;7.70;1.90;;;19.20;58.10;;;;;;5072077;28;20076;-64
2023/04/04 09:15:00;;;;;;;4.25;1.77;;;18.90;57.20;;;;;;5070237;28;20079;-64
2023/04/04 09:17:27;;;;;;;4.15;1.73;;;17.60;57.40;;;;;;5071745;28;20055;-63
2023/04/04 09:19:54;;;;;;;4.40;1.90;;;17.70;58.30;;;;;;5071099;28;20048;-63
2023/04/04 09:22:21;;;;;;;6.60;1.85;;;19.40;59.00;;;;;;5074239;28;20496;-64
2023/04/04 09:24:50;;;;;;;5.28;1.70;;;18.10;56.80;;;;;;5075019;28;20071;-63
2023/04/04 09:27:19;;;;;;;5.95;1.65;;;18.30;58.70;;;;;;5074164;28;20102;-64
2023/04/04 09:29:46;;;;;;;5.03;1.75;;;17.40;57.50;;;;;;5074062;28;20136;-63
2023/04/04 09:32:15;;;;;;;5.05;1.98;;;18.50;56.60;;;;;;5075947;28;20124;-63
2023/04/04 09:34:42;;;;;;;3.17;1.58;;;18.20;56.90;;;;;;5074141;28;20487;-64
2023/04/04 09:37:13;;;;;;;3.13;1.45;;;18.30;58.50;;;;;;5075739;28;20052;-64
2023/04/04 09:39:40;;;;;;;5.18;2.00;;;17.50;57.40;;;;;;5075721;28;20404;-64
2023/04/04 09:42:08;;;;;;;4.35;1.80;;;18.00;58.50;;;;;;5075092;28;20121;-63
2023/04/04 09:44:37;;;;;;;3.67;1.63;;;18.10;56.90;;;;;;5075725;28;20053;-63
2023/04/04 09:47:26;;;;;;;5.57;1.83;;;18.60;57.70;;;;;;5074622;28;20056;-62
2023/04/04 09:49:53;;;;;;;6.13;1.80;;;18.50;55.50;;;;;;5075083;28;20132;-64
2023/04/04 09:52:20;;;;;;;3.92;1.63;;;19.30;56.50;;;;;;5075375;28;20573;-64
2023/04/04 09:54:58;;;;;;;2.92;1.50;;;18.60;55.70;;;;;;5074501;28;20048;-64
2023/04/04 09:57:26;;;;;;;5.50;1.85;;;18.50;56.10;;;;;;5074649;28;20142;-64
2023/04/04 09:59:57;;;;;;;4.90;1.60;;;18.70;54.80;;;;;;5075415;28;20055;-64
2023/04/04 10:02:24;;;;;;;5.22;1.58;;;18.30;55.50;;;;;;5074457;28;20048;-64
2023/04/04 10:04:53;;;;;;;4.65;2.13;;;18.20;54.60;;;;;;5073377;28;20049;-63
2023/04/04 10:07:20;;;;;;;5.00;2.00;;;18.50;55.90;;;;;;5074984;28;20450;-63
2023/04/04 10:09:49;;;;;;;5.15;1.80;;;19.40;55.90;;;;;;5071327;28;20052;-64
2023/04/04 10:12:17;;;;;;;4.22;1.92;;;18.70;58.10;;;;;;5073803;28;20114;-63
2023/04/04 10:14:44;;;;;;;5.55;2.22;;;18.50;55.40;;;;;;5073922;28;20500;-63
2023/04/04 10:17:13;;;;;;;4.10;1.65;;;18.20;56.70;;;;;;5073315;28;20110;-64
2023/04/04 10:19:40;;;;;;;4.95;1.90;;;17.70;55.60;;;;;;5073665;28;20076;-63
2023/04/04 10:22:08;;;;;;;10.45;2.33;;;17.90;56.50;;;;;;5075201;28;20052;-65
2023/04/04 10:24:35;;;;;;;3.90;1.63;;;18.10;55.80;;;;;;5074441;28;20045;-63
2023/04/04 10:27:02;;;;;;;5.22;1.80;;;18.70;56.80;;;;;;5073382;28;20052;-63
2023/04/04 10:29:31;;;;;;;7.68;2.10;;;18.50;56.70;;;;;;5072993;28;20044;-63
2023/04/04 10:32:02;;;;;;;6.00;2.20;;;18.80;57.30;;;;;;5073392;28;20048;-64
2023/04/04 10:34:37;;;;;;;3.85;1.92;;;19.00;54.80;;;;;;5073708;28;20152;-63
2023/04/04 10:37:08;;;;;;;3.85;1.88;;;18.50;55.80;;;;;;5074377;28;20098;-63
2023/04/04 10:39:40;;;;;;;3.70;2.40;;;18.40;56.40;;;;;;5073444;28;20135;-63
2023/04/04 10:42:07;;;;;;;5.25;2.35;;;18.40;57.40;;;;;;5074625;28;20056;-63
2023/04/04 10:44:38;;;;;;;3.63;2.10;;;18.40;58.30;;;;;;5073643;28;20496;-63
2023/04/04 10:47:14;;;;;;;5.75;2.50;;;18.30;57.60;;;;;;5072736;28;20071;-64
2023/04/04 10:49:44;;;;;;;4.55;2.42;;;18.50;57.10;;;;;;5074656;28;20067;-63
2023/04/04 10:52:13;;;;;;;4.68;1.98;;;17.00;56.90;;;;;;5072775;28;20068;-64
2023/04/04 10:54:42;;;;;;;6.93;2.28;;;17.50;57.50;;;;;;5074562;28;20124;-62
2023/04/04 10:57:10;;;;;;;5.30;2.08;;;17.00;58.80;;;;;;5072831;28;20041;-64
2023/04/04 10:59:56;;;;;;;5.55;2.60;;;16.50;58.40;;;;;;5073488;28;20052;-63
2023/04/04 11:02:45;;;;;;;5.72;2.40;;;16.50;58.60;;;;;;5074269;28;20457;-64
2023/04/04 11:05:18;;;;;;;9.93;2.28;;;17.40;56.60;;;;;;5074042;28;20056;-64
2023/04/04 11:07:46;;;;;;;5.20;2.35;;;17.70;57.30;;;;;;5072451;28;20056;-64
2023/04/04 11:10:15;;;;;;;6.78;2.85;;;17.80;58.10;;;;;;5074098;28;20044;-63
2023/04/04 11:12:46;;;;;;;4.05;1.90;;;17.50;58.50;;;;;;5073907;28;20554;-62
2023/04/04 11:15:15;;;;;;;4.07;2.40;;;18.00;58.40;;;;;;5071027;28;20389;-63
2023/04/04 11:18:01;;;;;;;6.35;2.45;;;18.40;57.50;;;;;;5070397;28;20051;-63
2023/04/04 11:20:34;;;;;;;5.78;2.50;;;18.30;56.30;;;;;;5073209;28;20049;-62
2023/04/04 11:23:09;;;;;;;3.55;2.10;;;17.50;59.10;;;;;;5074258;28;20049;-64
2023/04/04 11:25:40;;;;;;;5.35;2.10;;;17.70;57.70;;;;;;5072648;28;20109;-63
2023/04/04 11:28:13;;;;;;;7.13;2.70;;;17.40;57.30;;;;;;5072986;28;20049;-63
2023/04/04 11:30:47;;;;;;;5.10;2.30;;;18.10;57.40;;;;;;5072671;28;20040;-64
2023/04/04 11:33:14;;;;;;;5.07;2.15;;;18.50;56.70;;;;;;5073673;28;20059;-64
2023/04/04 11:35:47;;;;;;;5.85;2.20;;;18.40;56.80;;;;;;5073062;28;20051;-63
2023/04/04 11:38:15;;;;;;;4.57;2.03;;;18.10;58.10;;;;;;5073611;28;20044;-64
2023/04/04 11:40:52;;;;;;;6.03;2.67;;;17.90;57.90;;;;;;5073490;28;20072;-64
2023/04/04 11:43:19;;;;;;;4.53;2.35;;;18.50;58.00;;;;;;5072346;28;20114;-64
2023/04/04 11:45:47;;;;;;;5.15;1.90;;;18.70;58.00;;;;;;5072909;28;20135;-64
2023/04/04 11:48:16;;;;;;;5.28;2.30;;;18.30;57.90;;;;;;5071676;28;20056;-64
2023/04/04 11:50:50;;;;;;;7.03;2.00;;;17.70;59.50;;;;;;5072367;28;20048;-63
2023/04/04 11:53:17;;;;;;;3.55;1.98;;;17.60;57.90;;;;;;5072186;28;20385;-63
2023/04/04 11:55:48;;;;;;;5.95;2.25;;;18.10;58.40;;;;;;5071471;28;20048;-63
2023/04/04 11:58:17;;;;;;;5.60;2.33;;;17.90;57.00;;;;;;5072121;28;20481;-63
2023/04/04 12:00:45;;;;;;;4.95;2.17;;;19.00;56.60;;;;;;5072089;28;20094;-63
2023/04/04 12:03:14;;;;;;;7.20;1.92;;;18.90;55.70;;;;;;5071144;28;20067;-63
2023/04/04 12:05:43;;;;;;;6.07;2.30;;;18.30;54.50;;;;;;5073088;28;20460;-62
2023/04/04 12:08:12;;;;;;;5.40;2.63;;;18.30;55.80;;;;;;5069929;28;20480;-64
2023/04/04 12:10:40;;;;;;;4.63;2.03;;;18.40;55.60;;;;;;5072485;28;20056;-64
2023/04/04 12:13:08;;;;;;;5.88;2.40;;;18.10;56.80;;;;;;5071849;28;20048;-63
2023/04/04 12:15:36;;;;;;;4.53;2.13;;;18.50;57.00;;;;;;5071652;28;20048;-62
2023/04/04 12:18:06;;;;;;;4.38;2.30;;;18.10;57.60;;;;;;5071139;28;20058;-62
2023/04/04 12:20:33;;;;;;;3.72;1.70;;;17.90;55.80;;;;;;5071645;28;20381;-62
2023/04/04 12:23:00;;;;;;;5.32;2.33;;;17.60;57.60;;;;;;5071686;28;20060;-63
2023/04/04 12:25:32;;;;;;;5.82;2.20;;;17.90;57.70;;;;;;5071951;28;20044;-62
2023/04/04 12:28:00;;;;;;;4.18;2.00;;;17.20;56.60;;;;;;5071485;28;20061;-63
2023/04/04 12:30:27;;;;;;;5.85;2.70;;;16.60;57.50;;;;;;5070666;28;20105;-63
2023/04/04 12:32:55;;;;;;;5.45;2.03;;;16.80;58.40;;;;;;5072477;28;20048;-63
2023/04/04 12:35:22;;;;;;;5.82;2.10;;;17.20;57.20;;;;;;5072329;28;20492;-63
2023/04/04 12:38:00;;;;;;;3.25;1.98;;;17.50;57.60;;;;;;5070461;28;20590;-63
2023/04/04 12:40:37;;;;;;;4.72;2.10;;;17.20;58.00;;;;;;5071145;28;20412;-63
2023/04/04 12:43:09;;;;;;;3.38;1.92;;;17.40;57.30;;;;;;5072288;28;20102;-63
2023/04/04 12:45:38;;;;;;;5.95;2.15;;;17.90;55.80;;;;;;5071500;28;20045;-63
2023/04/04 12:48:12;;;;;;;5.95;2.00;;;18.30;56.00;;;;;;5070950;28;20048;-63
2023/04/04 12:50:53;;;;;;;3.42;2.15;;;17.90;56.60;;;;;;5070763;28;20048;-63
2023/04/04 12:53:22;;;;;;;3.90;2.20;;;17.40;56.70;;;;;;5071631;28;20119;-64
2023/04/04 12:55:51;;;;;;;4.25;2.50;;;17.50;58.40;;;;;;5071865;28;20458;-63
2023/04/04 12:58:21;;;;;;;4.68;2.17;;;18.00;59.00;;;;;;5071135;28;20063;-63